Kenyon, Rhode Island
Current Conditions -  °F | °C
As of 1:53 AM on Saturday 25 Oct 2014 (Local Time) from KWST Reporting Station
Clear Clear  
Wind Chill: 49°   Ceiling: Unl
Heat Index: 49°   Visibility: 10mi
Dew Point: 43°   Wind: 0mph
Humidity: 80%   Direction: NA
Pressure: 29.78"   Gusts: NA
Location:  41.45°N, 71.63°W
Report Text: KWST 250553Z AUTO 00000KT 10SM CLR 09/06 A2978 RMK AO2 SLP084 T00940061 10117 20094 50001
Loading
Personal Weather Stations






























Interactive Weather Map
Tropical Storm Tracking
New forecast layout! Learn more

10-Day Weather Forecast

Advertisements
Track Severe Weather on mobile